Time;durP1;ratioP1;P1;durP2;ratioP2;P2;SDS_P1;SDS_P2;PMS_P1;PMS_P2;Temp;Humidity;BMP_temperature;BMP_pressure;BME280_temperature;BME280_humidity;BME280_pressure;Samples;Min_cycle;Max_cycle;Signal;HPM_P1;HPM_P2
2022/07/20 00:00:04;;;;;;;1.03;1.00;;;23.70;49.60;24.40;96654.00;;;;5078330;28;20290;-81
2022/07/20 00:02:31;;;;;;;1.57;1.10;;;23.70;49.60;24.40;96664.00;;;;5076853;28;20206;-81
2022/07/20 00:04:58;;;;;;;1.10;1.03;;;23.70;49.70;24.40;96662.00;;;;5076830;28;20232;-81
2022/07/20 00:07:25;;;;;;;1.37;1.23;;;23.70;49.70;24.40;96666.00;;;;5077362;28;20204;-81
2022/07/20 00:12:38;;;;;;;1.93;1.17;;;23.60;49.80;24.30;96669.00;;;;5076925;28;20230;-81
2022/07/20 00:15:07;;;;;;;1.30;1.20;;;23.60;49.90;24.30;96661.00;;;;5077329;28;20326;-81
2022/07/20 00:17:34;;;;;;;1.80;1.40;;;23.60;50.00;24.30;96669.00;;;;5079273;28;20204;-82
2022/07/20 00:20:02;;;;;;;3.57;1.67;;;23.60;50.00;24.20;96662.00;;;;5080673;28;20223;-81
2022/07/20 00:22:29;;;;;;;1.00;1.00;;;23.50;50.10;24.20;96667.00;;;;5071326;28;20194;-81
2022/07/20 00:24:56;;;;;;;1.70;1.27;;;23.50;50.20;24.20;96672.00;;;;5085258;28;20223;-82
2022/07/20 00:27:23;;;;;;;2.77;1.10;;;23.50;50.40;24.20;96664.00;;;;5077832;28;20189;-81
2022/07/20 00:29:52;;;;;;;1.53;1.33;;;23.50;50.50;24.10;96659.00;;;;5078306;28;20196;-81
2022/07/20 00:32:19;;;;;;;1.20;1.00;;;23.40;50.60;24.10;96649.00;;;;5078039;28;20206;-81
2022/07/20 00:34:46;;;;;;;1.53;1.03;;;23.40;50.70;24.10;96655.00;;;;5077660;28;20219;-81
2022/07/20 00:37:13;;;;;;;1.47;1.37;;;23.40;50.90;24.10;96652.00;;;;5076377;28;20603;-81
2022/07/20 00:39:40;;;;;;;1.60;1.40;;;23.40;51.10;24.00;96647.00;;;;5078844;28;20198;-81
2022/07/20 00:42:07;;;;;;;1.57;1.10;;;23.40;51.20;24.00;96647.00;;;;5078838;28;20197;-82
2022/07/20 00:44:34;;;;;;;1.27;1.20;;;23.30;51.10;24.00;96648.00;;;;5077229;28;20250;-82
2022/07/20 00:47:03;;;;;;;1.83;1.20;;;23.30;51.30;24.00;96651.00;;;;5077813;28;20198;-81
2022/07/20 00:49:31;;;;;;;1.27;0.90;;;23.30;51.40;24.00;96643.00;;;;5069980;28;20230;-81
2022/07/20 00:51:58;;;;;;;1.70;1.20;;;23.30;51.30;23.90;96646.00;;;;5076030;28;20711;-82
2022/07/20 00:54:25;;;;;;;1.60;1.30;;;23.20;51.30;23.90;96648.00;;;;5077587;28;20924;-81
2022/07/20 00:56:52;;;;;;;1.20;1.10;;;23.20;51.40;23.90;96641.00;;;;5074190;28;21100;-81
2022/07/20 00:59:20;;;;;;;1.00;1.00;;;23.20;51.30;23.90;96645.00;;;;5077879;28;20215;-81
2022/07/20 01:01:47;;;;;;;1.47;1.37;;;23.20;51.20;23.80;96647.00;;;;5076803;28;20188;-81
2022/07/20 01:04:15;;;;;;;1.20;1.10;;;23.10;51.40;23.80;96644.00;;;;5076686;28;20216;-81
2022/07/20 01:06:43;;;;;;;1.43;1.33;;;23.10;51.50;23.80;96646.00;;;;5073514;28;20236;-81
2022/07/20 01:09:10;;;;;;;2.57;1.40;;;23.10;51.60;23.70;96637.00;;;;5076938;28;20605;-81
2022/07/20 01:11:38;;;;;;;1.43;1.13;;;23.10;51.50;23.70;96638.00;;;;5081660;28;20579;-81
2022/07/20 01:14:07;;;;;;;1.90;1.20;;;23.00;51.50;23.70;96635.00;;;;5079223;28;20777;-81
2022/07/20 01:16:36;;;;;;;1.17;1.07;;;23.00;51.40;23.70;96639.00;;;;5079982;28;20225;-81
2022/07/20 01:19:04;;;;;;;2.20;1.40;;;23.00;51.50;23.70;96640.00;;;;5081272;28;20722;-81
2022/07/20 01:21:39;;;;;;;6.07;1.57;;;23.00;51.60;23.60;96634.00;;;;5078686;28;20223;-81
2022/07/20 01:24:09;;;;;;;1.13;1.03;;;23.00;51.70;23.60;96635.00;;;;5080182;28;20221;-81
2022/07/20 01:26:37;;;;;;;1.83;1.27;;;22.90;51.70;23.60;96638.00;;;;5080466;28;20200;-81
2022/07/20 01:29:05;;;;;;;1.20;1.10;;;22.90;51.80;23.60;96629.00;;;;5079389;28;20676;-81
2022/07/20 01:31:32;;;;;;;1.53;1.30;;;22.90;51.90;23.50;96633.00;;;;5076330;28;20226;-81
2022/07/20 01:33:59;;;;;;;1.10;1.00;;;22.90;51.80;23.50;96619.00;;;;5079457;28;20250;-81
2022/07/20 01:36:26;;;;;;;1.50;0.90;;;22.80;51.90;23.50;96625.00;;;;5086334;28;20223;-81
2022/07/20 01:38:55;;;;;;;1.17;1.07;;;22.80;52.70;23.50;96615.00;;;;5078206;28;20274;-82
2022/07/20 01:41:22;;;;;;;1.07;1.03;;;22.80;52.20;23.50;96623.00;;;;5076324;28;20199;-81
2022/07/20 01:43:50;;;;;;;1.10;1.00;;;22.80;52.20;23.50;96617.00;;;;5076549;28;20216;-82
2022/07/20 01:46:17;;;;;;;3.57;1.10;;;22.80;52.30;23.50;96618.00;;;;5072001;28;20343;-81
2022/07/20 01:48:44;;;;;;;2.33;1.20;;;22.80;52.40;23.50;96614.00;;;;5079979;28;20223;-81
2022/07/20 01:51:11;;;;;;;1.30;1.20;;;22.80;52.40;23.40;96615.00;;;;5082048;28;20198;-81
2022/07/20 01:53:38;;;;;;;2.53;1.10;;;22.70;52.50;23.40;96616.00;;;;5076290;28;20220;-81
2022/07/20 01:56:08;;;;;;;1.50;1.40;;;22.70;52.60;23.40;96613.00;;;;5076618;28;20258;-81
2022/07/20 01:58:35;;;;;;;1.90;1.40;;;22.70;52.70;23.40;96616.00;;;;5070088;28;20292;-81
2022/07/20 02:01:02;;;;;;;1.20;1.10;;;22.70;52.70;23.30;96616.00;;;;5070192;28;20242;-82
2022/07/20 02:03:29;;;;;;;1.70;1.30;;;22.60;52.90;23.30;96610.00;;;;5073049;28;20218;-82
2022/07/20 02:05:57;;;;;;;1.53;1.43;;;22.60;53.00;23.20;96606.00;;;;5076159;28;20672;-82
2022/07/20 02:08:25;;;;;;;2.20;1.30;;;22.60;53.20;23.20;96614.00;;;;5079674;28;20656;-81
2022/07/20 02:10:52;;;;;;;1.33;1.23;;;22.50;53.30;23.20;96610.00;;;;5069228;28;21465;-81
2022/07/20 02:13:21;;;;;;;1.60;1.50;;;22.50;53.40;23.10;96610.00;;;;5107210;22;20246;-82
2022/07/20 02:18:32;;;;;;;1.33;1.27;;;22.50;53.70;23.10;96600.00;;;;5105505;28;20586;-82
2022/07/20 02:21:00;;;;;;;3.67;1.20;;;22.40;53.60;23.10;96603.00;;;;5097777;28;20614;-82
2022/07/20 02:23:27;;;;;;;2.10;1.30;;;22.40;53.80;23.00;96609.00;;;;5111361;28;20252;-82
2022/07/20 02:25:54;;;;;;;4.33;1.13;;;22.40;53.90;23.00;96603.00;;;;5112605;28;20229;-82
2022/07/20 02:28:23;;;;;;;1.63;1.40;;;22.30;53.80;23.00;96606.00;;;;5104756;28;20276;-82
2022/07/20 02:30:50;;;;;;;3.60;1.20;;;22.30;53.90;22.90;96607.00;;;;5110217;28;20283;-82
2022/07/20 02:33:18;;;;;;;1.50;1.40;;;22.30;53.90;22.90;96609.00;;;;5103712;28;20260;-82
2022/07/20 02:35:45;;;;;;;1.03;1.00;;;22.30;54.00;22.90;96610.00;;;;5109456;28;20688;-82
2022/07/20 02:38:13;;;;;;;1.40;0.93;;;22.30;54.10;22.90;96609.00;;;;5112511;28;20305;-82
2022/07/20 02:40:40;;;;;;;1.40;1.30;;;22.20;54.10;22.90;96618.00;;;;5112437;28;20203;-83
2022/07/20 02:43:07;;;;;;;1.93;1.10;;;22.20;54.10;22.90;96612.00;;;;5108123;28;20613;-83
2022/07/20 02:45:36;;;;;;;1.20;1.10;;;22.20;54.10;22.90;96617.00;;;;5113939;28;20242;-82
2022/07/20 02:48:04;;;;;;;1.20;1.10;;;22.20;54.10;22.80;96623.00;;;;5113582;28;20267;-82
2022/07/20 02:50:33;;;;;;;1.13;1.03;;;22.20;54.10;22.80;96621.00;;;;5108605;28;20221;-82
2022/07/20 02:53:01;;;;;;;1.40;1.07;;;22.20;54.20;22.80;96614.00;;;;5099172;28;20249;-82
2022/07/20 02:55:29;;;;;;;1.60;1.50;;;22.10;54.80;22.80;96627.00;;;;5107779;28;20215;-82
2022/07/20 02:57:56;;;;;;;1.13;1.10;;;22.10;54.30;22.70;96621.00;;;;5102009;28;20259;-82
2022/07/20 03:00:24;;;;;;;2.87;1.70;;;22.10;54.40;22.70;96625.00;;;;5108507;28;20634;-82
2022/07/20 03:02:52;;;;;;;2.47;1.17;;;22.10;54.60;22.70;96631.00;;;;5105633;28;20248;-82
2022/07/20 03:05:21;;;;;;;1.63;1.23;;;22.00;54.60;22.70;96620.00;;;;5111303;28;20608;-82
2022/07/20 03:07:48;;;;;;;1.30;1.13;;;22.00;54.60;22.70;96623.00;;;;5106686;28;20255;-82
2022/07/20 03:10:16;;;;;;;1.50;1.40;;;22.00;54.60;22.60;96623.00;;;;5114085;28;20198;-82
2022/07/20 03:12:43;;;;;;;1.60;1.33;;;22.00;54.60;22.60;96623.00;;;;5095069;28;20213;-82
2022/07/20 03:15:12;;;;;;;1.63;1.23;;;22.00;54.60;22.60;96619.00;;;;5098809;28;20245;-82
2022/07/20 03:17:45;;;;;;;2.80;1.17;;;21.90;54.60;22.60;96632.00;;;;5104491;28;20215;-82
2022/07/20 03:20:20;;;;;;;2.57;1.27;;;21.90;54.90;22.60;96619.00;;;;5105667;28;20655;-82
2022/07/20 03:22:47;;;;;;;1.70;1.23;;;21.90;54.80;22.60;96628.00;;;;5107178;28;20265;-82
2022/07/20 03:25:14;;;;;;;1.20;1.10;;;21.90;54.70;22.60;96624.00;;;;5105056;28;20191;-82
2022/07/20 03:27:42;;;;;;;1.73;1.10;;;21.90;54.70;22.60;96627.00;;;;5106309;28;20569;-82
2022/07/20 03:30:11;;;;;;;1.63;1.20;;;21.90;54.60;22.50;96628.00;;;;5104256;28;20191;-82
2022/07/20 03:32:38;;;;;;;3.80;1.03;;;21.90;54.60;22.50;96625.00;;;;5100734;28;20210;-82
2022/07/20 03:35:08;;;;;;;2.63;1.27;;;21.80;54.70;22.50;96625.00;;;;5108125;28;20190;-82
2022/07/20 03:37:40;;;;;;;2.20;1.33;;;21.80;54.70;22.50;96620.00;;;;5109845;28;20677;-82
2022/07/20 03:40:09;;;;;;;2.20;1.23;;;21.80;54.80;22.40;96613.00;;;;5103290;28;20248;-83
2022/07/20 03:42:39;;;;;;;1.23;1.13;;;21.80;54.80;22.40;96608.00;;;;5101082;28;20206;-83
2022/07/20 03:45:08;;;;;;;2.23;1.13;;;21.80;54.80;22.40;96623.00;;;;5093413;28;20202;-83
2022/07/20 03:47:35;;;;;;;4.20;1.30;;;21.70;54.80;22.40;96624.00;;;;5108611;28;20214;-83
2022/07/20 03:50:03;;;;;;;2.70;1.40;;;21.70;54.90;22.30;96619.00;;;;5106949;28;20198;-85
2022/07/20 03:52:30;;;;;;;1.33;1.17;;;21.70;54.90;22.30;96622.00;;;;5112652;28;20578;-85
2022/07/20 03:54:59;;;;;;;2.10;1.30;;;21.70;54.90;22.30;96618.00;;;;5100532;28;20204;-87
2022/07/20 03:57:26;;;;;;;1.17;1.10;;;21.60;55.00;22.30;96618.00;;;;5107878;28;20218;-85
2022/07/20 03:59:54;;;;;;;1.27;1.10;;;21.60;55.00;22.20;96620.00;;;;5110191;28;20202;-86
2022/07/20 04:02:21;;;;;;;1.40;1.30;;;21.60;55.10;22.20;96628.00;;;;5098856;28;20190;-85
2022/07/20 04:04:48;;;;;;;1.33;1.10;;;21.50;55.10;22.20;96619.00;;;;5110610;28;20199;-84
2022/07/20 04:07:16;;;;;;;1.30;1.20;;;21.50;55.20;22.10;96620.00;;;;5110713;28;20605;-87
2022/07/20 04:09:46;;;;;;;1.43;1.00;;;21.50;55.30;22.10;96625.00;;;;5110402;28;20199;-85
2022/07/20 04:12:18;;;;;;;2.27;1.40;;;21.40;55.30;22.10;96628.00;;;;5102007;28;20193;-85
2022/07/20 04:14:46;;;;;;;1.37;1.27;;;21.40;55.40;22.10;96622.00;;;;5105292;28;20335;-85
2022/07/20 04:17:14;;;;;;;1.50;1.37;;;21.40;55.60;22.00;96624.00;;;;5106717;28;20242;-83
2022/07/20 04:19:41;;;;;;;1.83;1.40;;;21.40;55.80;22.00;96632.00;;;;5103034;28;20638;-85
2022/07/20 04:22:09;;;;;;;4.00;1.20;;;21.40;56.00;22.00;96623.00;;;;5097838;28;20200;-82
2022/07/20 04:24:38;;;;;;;1.90;1.33;;;21.40;56.20;22.00;96631.00;;;;5103533;28;20223;-84
2022/07/20 04:27:05;;;;;;;4.03;1.30;;;21.30;56.30;22.00;96629.00;;;;5108227;28;20709;-84
2022/07/20 04:29:34;;;;;;;2.27;1.53;;;21.40;56.50;22.00;96624.00;;;;5103585;28;20205;-85
2022/07/20 04:32:01;;;;;;;2.33;1.60;;;21.40;56.60;22.00;96625.00;;;;5102055;28;20195;-83
2022/07/20 04:34:29;;;;;;;2.23;1.43;;;21.40;56.60;22.00;96626.00;;;;5111509;28;20202;-84
2022/07/20 04:36:56;;;;;;;1.17;1.07;;;21.40;56.70;22.00;96630.00;;;;5109799;28;20623;-83
2022/07/20 04:39:24;;;;;;;1.63;1.20;;;21.40;56.70;22.10;96627.00;;;;5111219;28;20189;-86
2022/07/20 04:41:52;;;;;;;1.33;1.23;;;21.40;56.80;22.10;96636.00;;;;5106033;28;20203;-85
2022/07/20 04:44:20;;;;;;;1.60;1.47;;;21.40;56.80;22.10;96640.00;;;;5099001;28;20276;-84
2022/07/20 04:46:48;;;;;;;1.37;1.27;;;21.40;56.90;22.20;96647.00;;;;5102841;28;20254;-84
2022/07/20 04:49:16;;;;;;;1.20;1.10;;;21.50;57.00;22.20;96647.00;;;;5105753;28;20219;-84
2022/07/20 04:51:43;;;;;;;1.87;1.23;;;21.50;56.90;22.20;96647.00;;;;5100893;28;20203;-84
2022/07/20 04:54:10;;;;;;;1.83;1.20;;;21.50;57.00;22.20;96641.00;;;;5103624;28;20252;-85
2022/07/20 04:56:38;;;;;;;2.40;1.30;;;21.60;57.10;22.30;96652.00;;;;5103236;28;20314;-84
2022/07/20 04:59:05;;;;;;;1.80;1.40;;;21.60;57.10;22.30;96652.00;;;;5104457;28;20757;-84
2022/07/20 05:01:33;;;;;;;2.20;1.20;;;21.60;57.20;22.40;96648.00;;;;5105307;28;20199;-84
2022/07/20 05:04:01;;;;;;;1.30;1.20;;;21.70;57.30;22.40;96647.00;;;;5110024;28;20224;-84
2022/07/20 05:06:30;;;;;;;1.30;1.20;;;21.70;57.30;22.50;96652.00;;;;5102681;28;20721;-84
2022/07/20 05:08:57;;;;;;;1.47;1.00;;;21.70;57.50;22.50;96651.00;;;;5108678;28;20218;-84
2022/07/20 05:11:26;;;;;;;1.20;1.10;;;21.80;57.60;22.50;96650.00;;;;5097448;28;20210;-84
2022/07/20 05:13:53;;;;;;;1.47;1.27;;;21.80;57.70;22.60;96642.00;;;;5100985;28;20290;-84
2022/07/20 05:16:24;;;;;;;2.70;1.40;;;21.80;57.70;22.60;96645.00;;;;5100226;28;20664;-84
2022/07/20 05:18:51;;;;;;;1.53;1.20;;;21.80;57.70;22.70;96642.00;;;;5119764;28;20273;-84
2022/07/20 05:21:20;;;;;;;3.30;1.53;;;21.90;57.80;22.70;96644.00;;;;5111861;28;20287;-85
2022/07/20 05:23:47;;;;;;;2.37;1.17;;;21.90;57.70;22.70;96640.00;;;;5100753;28;20187;-85
2022/07/20 05:26:14;;;;;;;2.27;1.40;;;21.90;57.50;22.80;96639.00;;;;5105867;28;20207;-84
2022/07/20 05:28:41;;;;;;;1.53;1.20;;;22.00;57.60;22.80;96644.00;;;;5100883;28;20571;-85
2022/07/20 05:31:10;;;;;;;1.63;1.17;;;22.00;57.70;22.90;96645.00;;;;5106433;28;20285;-85
2022/07/20 05:33:37;;;;;;;2.30;1.03;;;22.10;57.70;22.90;96647.00;;;;5109264;28;20272;-83
2022/07/20 05:36:06;;;;;;;2.17;1.10;;;22.10;57.60;23.00;96638.00;;;;5100670;28;20191;-82
2022/07/20 05:38:34;;;;;;;2.93;1.30;;;22.20;57.60;23.00;96641.00;;;;5099273;28;20566;-84
2022/07/20 05:41:02;;;;;;;1.73;1.13;;;22.20;57.50;23.10;96648.00;;;;5102786;28;20203;-83
2022/07/20 05:43:29;;;;;;;1.33;1.23;;;22.30;57.20;23.20;96648.00;;;;5104240;28;20246;-84
2022/07/20 05:45:56;;;;;;;2.60;1.37;;;22.40;57.30;23.20;96646.00;;;;5101385;28;20666;-83
2022/07/20 05:48:23;;;;;;;1.50;1.33;;;22.40;57.30;23.30;96649.00;;;;5094589;28;20247;-84
2022/07/20 05:50:51;;;;;;;1.30;1.20;;;22.50;57.30;23.40;96656.00;;;;5104398;28;20236;-83
2022/07/20 05:53:18;;;;;;;1.00;1.00;;;22.50;57.40;23.40;96648.00;;;;5103085;28;20191;-84
2022/07/20 05:55:47;;;;;;;1.50;1.40;;;22.60;57.40;23.50;96645.00;;;;5108341;28;20206;-84
2022/07/20 05:58:17;;;;;;;1.17;1.17;;;22.70;57.20;23.60;96649.00;;;;5110159;28;20222;-83
2022/07/20 06:00:44;;;;;;;2.00;1.10;;;22.70;57.00;23.60;96661.00;;;;5111748;28;20225;-83
2022/07/20 06:03:14;;;;;;;1.30;1.23;;;22.80;57.10;23.70;96662.00;;;;5113149;28;20221;-84
2022/07/20 06:05:42;;;;;;;1.50;1.40;;;22.90;56.90;23.80;96656.00;;;;5116173;28;20206;-85
2022/07/20 06:08:09;;;;;;;2.20;1.20;;;22.90;56.70;23.90;96663.00;;;;5106723;27;20264;-84
2022/07/20 06:10:48;;;;;;;1.20;1.10;;;23.00;56.60;24.00;96668.00;;;;5115327;28;20943;-84
2022/07/20 06:13:15;;;;;;;2.03;1.40;;;23.10;56.60;24.00;96668.00;;;;5106473;28;20253;-84
2022/07/20 06:15:42;;;;;;;1.97;1.43;;;23.20;56.50;24.10;96663.00;;;;5109247;28;20252;-84
2022/07/20 06:18:10;;;;;;;1.63;1.53;;;23.30;56.20;24.20;96668.00;;;;5110355;28;20285;-83
2022/07/20 06:20:37;;;;;;;1.10;1.00;;;23.40;56.00;24.40;96667.00;;;;5113478;28;20596;-84
2022/07/20 06:23:04;;;;;;;1.27;1.17;;;23.50;55.80;24.50;96667.00;;;;5115488;28;20716;-84
2022/07/20 06:25:32;;;;;;;1.23;1.10;;;23.60;55.70;24.60;96675.00;;;;5104846;28;20203;-84
2022/07/20 06:28:00;;;;;;;1.93;1.23;;;23.70;55.60;24.70;96672.00;;;;5117825;28;20212;-84
2022/07/20 06:30:28;;;;;;;1.67;1.33;;;23.80;55.60;24.80;96669.00;;;;5113926;28;20653;-84
2022/07/20 06:32:56;;;;;;;2.80;1.67;;;23.90;55.50;24.90;96663.00;;;;5109176;28;20197;-83
2022/07/20 06:35:24;;;;;;;1.63;1.30;;;24.00;55.40;25.00;96665.00;;;;5113052;28;20285;-83
2022/07/20 06:37:51;;;;;;;1.50;1.30;;;24.10;55.30;25.10;96664.00;;;;5113350;28;20731;-84
2022/07/20 06:40:19;;;;;;;1.37;1.27;;;24.20;55.30;25.20;96663.00;;;;5117544;28;20228;-84
2022/07/20 06:42:46;;;;;;;3.77;1.30;;;24.30;55.30;25.30;96664.00;;;;5114944;28;20251;-84
2022/07/20 06:45:14;;;;;;;3.90;2.47;;;24.40;55.40;25.40;96666.00;;;;5112757;28;20677;-84
2022/07/20 06:47:42;;;;;;;2.90;2.00;;;24.50;55.20;25.50;96666.00;;;;5110870;28;20694;-84
2022/07/20 06:50:10;;;;;;;1.33;1.23;;;24.60;55.60;25.60;96667.00;;;;5104928;28;20540;-85
2022/07/20 06:52:37;;;;;;;1.60;1.30;;;24.70;55.00;25.60;96662.00;;;;5106671;28;20606;-84
2022/07/20 06:55:05;;;;;;;2.10;1.40;;;24.70;54.80;25.70;96662.00;;;;5116976;28;20735;-84
2022/07/20 06:57:33;;;;;;;3.30;1.60;;;24.80;54.60;25.80;96671.00;;;;5108981;28;20284;-84
2022/07/20 07:00:00;;;;;;;2.23;1.17;;;24.90;54.50;25.90;96679.00;;;;5113010;28;20281;-84
2022/07/20 07:02:28;;;;;;;2.10;1.70;;;25.00;54.60;26.00;96674.00;;;;5115738;28;20199;-84
2022/07/20 07:04:56;;;;;;;2.23;1.50;;;25.10;54.50;26.00;96673.00;;;;5115598;28;20195;-84
2022/07/20 07:07:23;;;;;;;1.93;1.27;;;25.20;54.50;26.10;96675.00;;;;5101244;28;20708;-84
2022/07/20 07:09:50;;;;;;;1.47;1.20;;;25.20;54.60;26.20;96682.00;;;;5094467;28;20707;-85
2022/07/20 07:12:17;;;;;;;2.00;1.33;;;25.30;54.80;26.30;96682.00;;;;5102511;28;20195;-85
2022/07/20 07:14:45;;;;;;;1.83;1.13;;;25.40;54.80;26.40;96681.00;;;;5106747;28;20248;-84
2022/07/20 07:17:13;;;;;;;1.33;1.23;;;25.50;54.80;26.60;96678.00;;;;5115757;28;20246;-84
2022/07/20 07:19:42;;;;;;;3.50;1.77;;;25.60;54.80;26.80;96689.00;;;;5096823;28;20614;-85
2022/07/20 07:22:09;;;;;;;3.43;1.70;;;25.80;54.90;27.00;96688.00;;;;5113249;28;20651;-85
2022/07/20 07:24:37;;;;;;;2.33;1.60;;;25.90;54.80;27.20;96688.00;;;;5116039;28;20191;-85
2022/07/20 07:27:04;;;;;;;2.13;1.70;;;26.10;55.50;27.40;96689.00;;;;5113879;28;20221;-85
2022/07/20 07:29:32;;;;;;;1.50;1.40;;;26.30;54.90;27.60;96690.00;;;;5115049;28;20199;-85
2022/07/20 07:31:59;;;;;;;2.33;1.60;;;26.50;54.80;27.80;96690.00;;;;5115329;28;20282;-85
2022/07/20 07:34:27;;;;;;;4.47;1.63;;;26.60;54.50;28.00;96695.00;;;;5109493;28;20226;-84
2022/07/20 07:36:57;;;;;;;1.73;1.50;;;26.80;54.50;28.30;96692.00;;;;5115183;28;20305;-84
2022/07/20 07:39:24;;;;;;;2.13;1.87;;;27.00;54.10;28.50;96687.00;;;;5115679;28;20202;-85
2022/07/20 07:41:51;;;;;;;2.07;1.67;;;27.20;54.10;28.70;96682.00;;;;5106444;28;20244;-85
2022/07/20 07:44:18;;;;;;;2.07;1.87;;;27.40;54.10;28.90;96691.00;;;;5096545;28;20217;-85
2022/07/20 07:46:46;;;;;;;3.35;1.77;;;27.60;53.90;29.10;96686.00;;;;5097922;28;20200;-85
2022/07/20 07:49:13;;;;;;;1.50;1.40;;;27.80;53.60;29.30;96682.00;;;;5115082;28;20218;-85
2022/07/20 07:51:40;;;;;;;3.28;2.08;;;27.90;53.30;29.50;96679.00;;;;5119765;28;20197;-85
2022/07/20 07:54:09;;;;;;;1.73;1.40;;;28.10;53.00;29.70;96685.00;;;;5115854;28;20608;-86
2022/07/20 07:56:38;;;;;;;1.92;1.60;;;28.30;53.10;29.80;96681.00;;;;5117012;28;20198;-85
2022/07/20 07:59:06;;;;;;;2.83;1.80;;;28.50;52.70;30.00;96675.00;;;;5123716;22;20274;-86
2022/07/20 08:01:34;;;;;;;1.85;1.65;;;28.70;52.70;30.20;96690.00;;;;5035791;28;20189;-86
2022/07/20 08:04:01;;;;;;;3.42;1.80;;;28.90;52.30;30.40;96685.00;;;;5045861;28;20548;-86
2022/07/20 08:06:28;;;;;;;2.58;2.28;;;29.10;52.10;30.60;96688.00;;;;5052121;28;20247;-84
2022/07/20 08:08:57;;;;;;;1.95;1.85;;;29.20;51.90;30.80;96691.00;;;;5044413;28;20291;-85
2022/07/20 08:11:25;;;;;;;1.75;1.65;;;29.40;51.60;31.00;96689.00;;;;5050363;28;20188;-85
2022/07/20 08:13:53;;;;;;;2.45;1.75;;;29.60;51.50;31.20;96692.00;;;;5068075;22;20650;-85
2022/07/20 08:16:20;;;;;;;2.05;1.85;;;29.80;51.30;31.40;96692.00;;;;5095845;28;20199;-85
2022/07/20 08:18:47;;;;;;;3.42;1.77;;;29.90;50.70;31.60;96686.00;;;;5092345;28;20283;-85
2022/07/20 08:21:14;;;;;;;2.72;2.00;;;30.10;50.40;31.80;96690.00;;;;5093981;28;20195;-85
2022/07/20 08:23:41;;;;;;;2.05;1.95;;;30.30;50.30;32.00;96693.00;;;;5093352;28;20216;-85
2022/07/20 08:26:09;;;;;;;2.67;1.95;;;30.50;50.20;32.20;96694.00;;;;5094248;28;20187;-85
2022/07/20 08:28:39;;;;;;;1.67;1.58;;;30.70;49.60;32.40;96695.00;;;;5082355;28;20257;-85
2022/07/20 08:31:07;;;;;;;2.90;1.85;;;30.80;49.60;32.60;96697.00;;;;5095044;28;20510;-85
2022/07/20 08:33:34;;;;;;;3.05;1.75;;;31.00;49.40;32.80;96686.00;;;;5096561;28;20215;-85
2022/07/20 08:36:01;;;;;;;2.25;1.88;;;31.20;49.10;33.00;96692.00;;;;5094726;28;20195;-85
2022/07/20 08:38:28;;;;;;;2.85;2.00;;;31.40;48.80;33.20;96696.00;;;;5091110;28;20215;-85
2022/07/20 08:40:57;;;;;;;2.78;1.92;;;31.60;48.90;33.40;96693.00;;;;5095030;28;20233;-86
2022/07/20 08:43:24;;;;;;;2.50;2.17;;;31.80;48.80;33.60;96691.00;;;;5096544;28;20668;-85
2022/07/20 08:45:53;;;;;;;2.58;2.38;;;31.90;48.40;33.80;96692.00;;;;5092041;28;20282;-86
2022/07/20 08:48:20;;;;;;;1.98;1.77;;;32.10;48.30;34.00;96694.00;;;;5090070;28;20252;-86
2022/07/20 08:50:49;;;;;;;2.75;2.10;;;32.30;48.10;34.20;96687.00;;;;5088815;28;20225;-85
2022/07/20 08:53:19;;;;;;;1.92;1.83;;;32.40;47.40;34.40;96681.00;;;;5093112;28;20222;-86
2022/07/20 08:55:47;;;;;;;1.83;1.73;;;32.60;46.80;34.60;96686.00;;;;5097310;28;20671;-86
2022/07/20 08:58:14;;;;;;;3.25;2.33;;;32.80;46.40;34.80;96686.00;;;;5095410;28;20258;-85
2022/07/20 09:00:41;;;;;;;2.90;1.75;;;33.00;46.20;34.90;96684.00;;;;5093457;28;20238;-85
2022/07/20 09:03:12;;;;;;;3.22;1.98;;;33.10;46.10;35.10;96687.00;;;;5091784;28;20274;-86
2022/07/20 09:05:42;;;;;;;2.53;1.67;;;33.30;45.80;35.30;96683.00;;;;5088486;28;20247;-85
2022/07/20 09:08:14;;;;;;;2.20;1.85;;;33.50;45.90;35.50;96684.00;;;;5084520;28;20246;-86
2022/07/20 09:10:46;;;;;;;3.45;2.10;;;33.70;45.70;35.80;96681.00;;;;5085080;28;20231;-86
2022/07/20 09:13:17;;;;;;;4.07;2.47;;;33.80;45.70;36.00;96682.00;;;;5084662;28;20710;-85
2022/07/20 09:15:47;;;;;;;3.03;2.13;;;34.00;45.30;36.30;96672.00;;;;5077685;28;20192;-85
2022/07/20 09:18:18;;;;;;;2.80;2.50;;;34.20;45.10;36.50;96681.00;;;;5090273;28;20219;-85
2022/07/20 09:20:51;;;;;;;2.03;1.90;;;34.40;45.20;36.70;96677.00;;;;5094148;28;20195;-85
2022/07/20 09:23:20;;;;;;;2.28;2.08;;;34.50;44.60;36.90;96678.00;;;;5089538;28;20191;-85
2022/07/20 09:25:56;;;;;;;2.10;2.00;;;34.70;44.20;37.20;96682.00;;;;5089951;28;20227;-86
2022/07/20 09:28:37;;;;;;;1.90;1.80;;;34.90;43.90;37.40;96681.00;;;;5089748;28;20244;-86
2022/07/20 09:31:11;;;;;;;2.13;1.95;;;35.00;43.90;37.70;96684.00;;;;5088663;28;20680;-86
2022/07/20 09:33:41;;;;;;;2.40;2.20;;;35.20;43.50;37.90;96677.00;;;;5094277;28;20735;-85
2022/07/20 09:36:12;;;;;;;2.40;2.20;;;35.40;43.40;38.10;96682.00;;;;5095073;28;20652;-86
2022/07/20 09:38:42;;;;;;;2.40;2.08;;;35.60;43.20;38.30;96686.00;;;;5093709;28;20215;-85
2022/07/20 09:41:24;;;;;;;2.17;1.98;;;35.80;42.70;38.50;96676.00;;;;5095601;28;20230;-86
2022/07/20 09:43:52;;;;;;;2.60;2.17;;;36.00;42.10;38.60;96681.00;;;;5096283;28;20236;-86
2022/07/20 09:46:21;;;;;;;3.08;2.10;;;36.20;42.60;38.80;96683.00;;;;5094460;28;20226;-86
2022/07/20 09:48:52;;;;;;;2.92;2.20;;;36.40;42.40;39.00;96683.00;;;;5094534;28;20230;-86
2022/07/20 09:51:26;;;;;;;4.93;2.05;;;36.50;41.90;39.20;96692.00;;;;5093004;28;20206;-86
2022/07/20 09:53:56;;;;;;;2.10;2.00;;;36.70;41.10;39.30;96691.00;;;;5089640;28;20772;-85
2022/07/20 09:56:25;;;;;;;3.30;2.45;;;36.90;41.30;39.40;96690.00;;;;5089714;28;20187;-86
2022/07/20 09:58:54;;;;;;;2.00;1.90;;;37.10;41.10;39.60;96691.00;;;;5090393;28;20219;-86
2022/07/20 10:01:25;;;;;;;2.13;1.88;;;37.20;41.40;39.80;96690.00;;;;5094702;28;20196;-86
2022/07/20 10:03:57;;;;;;;4.70;2.47;;;37.40;40.90;39.90;96695.00;;;;5092923;28;20245;-86
2022/07/20 10:06:27;;;;;;;2.85;2.28;;;37.60;40.10;40.10;96692.00;;;;5095152;28;20219;-86
2022/07/20 10:08:55;;;;;;;4.32;2.53;;;37.80;40.30;40.20;96691.00;;;;5093435;28;20278;-86
2022/07/20 10:11:26;;;;;;;2.55;2.20;;;38.00;39.90;40.40;96692.00;;;;5094762;28;20703;-86
2022/07/20 10:13:55;;;;;;;2.92;2.00;;;38.10;39.70;40.50;96692.00;;;;5092196;28;20235;-87
2022/07/20 10:16:30;;;;;;;2.42;2.22;;;38.30;39.30;40.70;96684.00;;;;5093446;28;20226;-86
2022/07/20 10:18:59;;;;;;;2.55;2.03;;;38.60;38.30;40.70;96677.00;;;;5087722;28;20246;-86
2022/07/20 10:21:40;;;;;;;6.72;2.03;;;38.80;37.70;40.80;96676.00;;;;5093243;28;20285;-86
2022/07/20 10:24:27;;;;;;;2.60;1.75;;;39.00;37.10;40.90;96688.00;;;;5092936;28;20287;-86
2022/07/20 10:27:15;;;;;;;2.45;2.25;;;39.20;37.20;40.90;96682.00;;;;5085785;28;20198;-86
2022/07/20 10:29:45;;;;;;;2.03;1.92;;;39.30;36.90;41.00;96690.00;;;;5092552;28;20207;-85
2022/07/20 10:32:16;;;;;;;2.10;1.92;;;39.40;36.90;41.00;96686.00;;;;5093576;28;20226;-86
2022/07/20 10:34:47;;;;;;;2.00;1.90;;;39.50;36.70;41.00;96685.00;;;;5092693;28;20215;-86
2022/07/20 10:37:35;;;;;;;2.47;2.03;;;39.60;36.80;41.00;96680.00;;;;5094703;28;20394;-87
2022/07/20 10:40:13;;;;;;;2.60;1.90;;;39.70;35.80;41.10;96689.00;;;;5089499;28;20230;-85
2022/07/20 10:42:43;;;;;;;2.47;1.92;;;39.80;35.70;41.10;96687.00;;;;5091922;28;20241;-86
2022/07/20 10:45:34;;;;;;;2.78;2.00;;;39.90;36.10;41.10;96681.00;;;;5094364;28;20428;-86
2022/07/20 10:48:17;;;;;;;1.98;1.88;;;40.00;36.30;41.20;96682.00;;;;5093599;28;20262;-86
2022/07/20 10:50:50;;;;;;;2.58;2.30;;;40.10;36.30;41.20;96678.00;;;;5091109;28;20226;-86
2022/07/20 10:53:36;;;;;;;2.17;2.00;;;40.20;35.70;41.20;96671.00;;;;5090247;28;20195;-85
2022/07/20 10:56:06;;;;;;;2.53;1.95;;;40.30;35.30;41.20;96675.00;;;;5087280;28;20226;-85
2022/07/20 10:58:37;;;;;;;3.05;1.83;;;40.40;35.60;41.10;96673.00;;;;5093953;28;20218;-86
2022/07/20 11:01:07;;;;;;;2.13;2.03;;;40.50;35.40;41.10;96681.00;;;;5094279;28;20191;-86
2022/07/20 11:03:40;;;;;;;2.65;1.80;;;40.50;35.00;41.10;96675.00;;;;5090198;28;20227;-87
2022/07/20 11:06:14;;;;;;;4.20;2.28;;;40.40;34.80;41.00;96672.00;;;;5100926;28;20191;-86